Time;durP1;ratioP1;P1;durP2;ratioP2;P2;SDS_P1;SDS_P2;PMS_P1;PMS_P2;Temp;Humidity;BMP_temperature;BMP_pressure;BME280_temperature;BME280_humidity;BME280_pressure;Samples;Min_cycle;Max_cycle;Signal;HPM_P1;HPM_P2
2020/12/28 00:00:33;;;;;;;12.38;6.20;;;2.00;76.40;;;;;;5052919;28;20024;-73
2020/12/28 00:02:59;;;;;;;10.50;5.25;;;2.00;76.60;;;;;;5034545;28;20050;-73
2020/12/28 00:05:26;;;;;;;12.57;6.93;;;2.10;76.50;;;;;;5052508;28;20025;-73
2020/12/28 00:07:53;;;;;;;11.30;6.65;;;2.10;76.80;;;;;;5052480;28;20033;-73
2020/12/28 00:10:20;;;;;;;17.77;8.30;;;2.10;77.00;;;;;;5052518;28;20532;-73
2020/12/28 00:12:48;;;;;;;14.48;6.75;;;2.10;77.50;;;;;;5052531;28;20025;-74
2020/12/28 00:15:17;;;;;;;9.40;5.65;;;2.10;77.20;;;;;;5052626;28;20495;-74
2020/12/28 00:17:50;;;;;;;9.25;5.25;;;2.20;76.80;;;;;;5052484;28;20029;-74
2020/12/28 00:20:16;;;;;;;7.45;5.03;;;2.20;77.20;;;;;;5051954;28;20029;-74
2020/12/28 00:22:42;;;;;;;7.93;5.63;;;2.20;76.90;;;;;;5052059;28;20017;-74
2020/12/28 00:25:08;;;;;;;9.77;6.25;;;2.20;76.90;;;;;;5052240;28;20395;-74
2020/12/28 00:27:33;;;;;;;8.95;6.35;;;2.20;77.10;;;;;;5052244;28;20032;-74
2020/12/28 00:29:59;;;;;;;8.85;5.53;;;2.20;77.70;;;;;;5052208;28;20035;-74
2020/12/28 00:32:25;;;;;;;9.35;5.55;;;2.20;77.60;;;;;;5052210;28;20036;-73
2020/12/28 00:34:51;;;;;;;9.45;6.07;;;2.30;77.50;;;;;;5052205;28;20055;-73
2020/12/28 00:37:16;;;;;;;7.57;4.82;;;2.30;77.60;;;;;;5052088;28;20025;-73
2020/12/28 00:39:42;;;;;;;9.05;5.30;;;2.30;77.40;;;;;;5051935;28;20103;-74
2020/12/28 00:42:08;;;;;;;9.73;6.63;;;2.30;77.60;;;;;;5051861;28;20434;-74
2020/12/28 00:44:34;;;;;;;12.02;6.13;;;2.30;77.70;;;;;;5052136;28;20495;-74
2020/12/28 00:46:59;;;;;;;10.00;7.13;;;2.30;77.70;;;;;;5034135;28;20391;-74
2020/12/28 00:49:25;;;;;;;7.10;5.15;;;2.30;77.90;;;;;;5034245;28;20047;-74
2020/12/28 00:51:51;;;;;;;13.70;7.63;;;2.30;77.70;;;;;;5051868;28;20116;-73
2020/12/28 00:54:16;;;;;;;11.20;6.50;;;2.40;78.50;;;;;;5052058;28;20102;-73
2020/12/28 00:56:42;;;;;;;11.35;5.90;;;2.40;77.70;;;;;;5051835;28;20084;-73
2020/12/28 00:59:07;;;;;;;10.23;5.68;;;2.40;77.50;;;;;;5033941;28;20033;-73
2020/12/28 01:01:33;;;;;;;8.38;5.22;;;2.50;77.30;;;;;;5051813;28;20029;-73
2020/12/28 01:03:59;;;;;;;8.35;5.45;;;2.50;77.20;;;;;;5051833;28;20079;-73
2020/12/28 01:06:24;;;;;;;7.60;5.20;;;2.50;77.40;;;;;;5034040;28;20032;-73
2020/12/28 01:08:50;;;;;;;9.30;5.53;;;2.50;77.30;;;;;;5051975;28;20033;-74
2020/12/28 01:11:21;;;;;;;13.38;7.65;;;2.50;77.40;;;;;;5051702;28;20041;-73
2020/12/28 01:13:47;;;;;;;11.63;6.72;;;2.50;78.10;;;;;;5051849;28;20025;-73
2020/12/28 01:16:13;;;;;;;7.32;5.28;;;2.50;77.70;;;;;;5051633;28;20107;-73
2020/12/28 01:18:41;;;;;;;9.90;6.05;;;2.50;77.10;;;;;;5051785;28;20468;-74
2020/12/28 01:21:07;;;;;;;9.80;5.68;;;2.50;77.20;;;;;;5051680;28;20060;-74
2020/12/28 01:23:33;;;;;;;10.25;6.22;;;2.50;77.30;;;;;;5033834;28;20032;-74
2020/12/28 01:25:59;;;;;;;8.32;5.55;;;2.50;77.80;;;;;;5051729;28;20041;-74
2020/12/28 01:28:24;;;;;;;12.77;6.88;;;2.50;77.50;;;;;;5051771;28;20031;-74
2020/12/28 01:30:50;;;;;;;9.65;6.47;;;2.50;78.50;;;;;;5051552;28;20484;-75
2020/12/28 01:33:16;;;;;;;8.23;5.65;;;2.50;78.00;;;;;;5054086;28;20063;-74
2020/12/28 01:35:41;;;;;;;7.68;5.30;;;2.50;77.30;;;;;;5037658;28;20112;-73
2020/12/28 01:38:07;;;;;;;9.07;5.93;;;2.60;77.20;;;;;;5055493;28;20128;-73
2020/12/28 01:40:33;;;;;;;9.93;5.63;;;2.60;77.20;;;;;;5039142;28;20239;-73
2020/12/28 01:42:59;;;;;;;11.00;6.03;;;2.60;77.40;;;;;;5055059;28;20025;-74
2020/12/28 01:45:25;;;;;;;15.07;7.28;;;2.60;77.70;;;;;;5037295;28;20086;-73
2020/12/28 01:47:51;;;;;;;12.98;7.20;;;2.60;78.70;;;;;;5055249;28;20089;-73
2020/12/28 01:50:17;;;;;;;9.32;5.90;;;2.70;78.00;;;;;;5055008;28;20100;-73
2020/12/28 01:52:43;;;;;;;9.57;6.05;;;2.70;77.50;;;;;;5053798;28;20102;-73
2020/12/28 01:55:09;;;;;;;10.10;6.32;;;2.80;77.00;;;;;;5054853;28;20028;-73
2020/12/28 01:57:35;;;;;;;12.25;6.80;;;2.70;77.10;;;;;;5054912;28;20040;-73
2020/12/28 02:00:02;;;;;;;13.75;7.63;;;2.80;77.80;;;;;;5055089;28;20033;-73
2020/12/28 02:02:30;;;;;;;8.23;5.32;;;2.80;77.10;;;;;;5054873;28;20033;-73
2020/12/28 02:04:56;;;;;;;10.57;6.40;;;2.80;76.50;;;;;;5054515;28;20495;-73
2020/12/28 02:07:23;;;;;;;10.35;6.50;;;2.80;77.00;;;;;;5054699;28;20055;-74
2020/12/28 02:09:49;;;;;;;10.05;5.93;;;2.80;76.90;;;;;;5054812;28;20025;-74
2020/12/28 02:12:15;;;;;;;9.48;5.90;;;2.80;76.50;;;;;;5054607;28;20029;-73
2020/12/28 02:14:41;;;;;;;11.40;6.43;;;2.80;76.50;;;;;;5054634;28;20021;-73
2020/12/28 02:17:07;;;;;;;8.65;5.60;;;2.90;76.80;;;;;;5036688;28;20451;-73
2020/12/28 02:19:32;;;;;;;10.48;5.78;;;2.90;76.30;;;;;;5054501;28;20017;-73
2020/12/28 02:21:58;;;;;;;10.35;6.30;;;2.90;76.60;;;;;;5020121;28;20021;-73
2020/12/28 02:24:24;;;;;;;12.35;6.70;;;2.90;76.70;;;;;;5054530;28;20029;-73
2020/12/28 02:26:50;;;;;;;11.95;7.22;;;3.00;77.00;;;;;;5054320;28;20463;-73
2020/12/28 02:29:15;;;;;;;9.57;5.97;;;3.00;76.30;;;;;;5054309;28;20217;-73
2020/12/28 02:31:41;;;;;;;10.65;6.03;;;2.90;76.60;;;;;;5054019;28;20041;-73
2020/12/28 02:34:07;;;;;;;9.27;5.95;;;3.00;76.60;;;;;;5054239;28;20171;-73
2020/12/28 02:36:32;;;;;;;13.95;7.47;;;3.10;76.30;;;;;;5054133;28;20036;-72
2020/12/28 02:38:59;;;;;;;9.05;5.50;;;3.10;77.00;;;;;;5054178;28;20075;-73
2020/12/28 02:41:25;;;;;;;11.50;6.32;;;3.10;76.20;;;;;;5036115;28;20491;-73
2020/12/28 02:43:51;;;;;;;12.27;7.07;;;3.00;76.50;;;;;;5052776;28;20040;-73
2020/12/28 02:46:17;;;;;;;8.32;5.93;;;3.00;76.40;;;;;;5053990;28;20108;-72
2020/12/28 02:48:43;;;;;;;11.15;6.70;;;3.00;76.00;;;;;;5054293;28;20057;-72
2020/12/28 02:51:11;;;;;;;9.38;6.18;;;3.00;77.00;;;;;;5053701;28;20072;-72
2020/12/28 02:53:37;;;;;;;8.50;5.22;;;2.90;76.00;;;;;;5053849;28;20103;-72
2020/12/28 02:56:03;;;;;;;9.80;6.75;;;2.90;76.40;;;;;;5035671;28;20124;-72
2020/12/28 02:58:28;;;;;;;9.60;6.10;;;3.00;77.50;;;;;;5053725;28;20032;-72
2020/12/28 03:00:54;;;;;;;10.65;5.90;;;2.90;76.50;;;;;;5053679;28;20443;-73
2020/12/28 03:03:19;;;;;;;10.23;6.28;;;2.90;76.50;;;;;;5053727;28;20504;-73
2020/12/28 03:05:45;;;;;;;11.77;7.20;;;2.80;76.80;;;;;;5053640;28;20029;-73
2020/12/28 03:08:11;;;;;;;13.38;7.65;;;2.80;77.40;;;;;;5053730;28;20029;-73
2020/12/28 03:10:36;;;;;;;10.05;6.15;;;2.90;78.00;;;;;;5053891;28;20033;-73
2020/12/28 03:13:02;;;;;;;13.07;7.85;;;2.90;77.00;;;;;;5053627;28;20100;-73
2020/12/28 03:15:28;;;;;;;11.55;6.55;;;2.90;77.10;;;;;;5053568;28;20082;-73
2020/12/28 03:17:53;;;;;;;9.60;6.05;;;2.90;76.60;;;;;;5053464;28;20041;-73
2020/12/28 03:20:19;;;;;;;9.48;6.78;;;2.80;76.50;;;;;;5053338;28;20025;-73
2020/12/28 03:22:45;;;;;;;8.48;5.93;;;2.80;76.80;;;;;;5053398;28;20028;-73
2020/12/28 03:25:10;;;;;;;9.35;6.20;;;2.80;76.70;;;;;;5053116;28;20479;-72
2020/12/28 03:27:36;;;;;;;13.18;8.23;;;2.80;76.90;;;;;;5052914;28;20060;-73
2020/12/28 03:30:03;;;;;;;11.85;7.70;;;2.70;77.40;;;;;;5034982;28;20472;-73
2020/12/28 03:32:28;;;;;;;8.90;5.93;;;2.70;78.20;;;;;;5053249;28;20055;-73
2020/12/28 03:34:54;;;;;;;10.85;6.80;;;2.70;77.60;;;;;;5052983;28;20029;-73
2020/12/28 03:37:20;;;;;;;7.88;5.53;;;2.60;77.60;;;;;;5052988;28;20452;-74
2020/12/28 03:39:45;;;;;;;8.15;5.78;;;2.60;77.40;;;;;;5052741;28;20419;-74
2020/12/28 03:42:11;;;;;;;7.97;5.65;;;2.60;77.50;;;;;;5052637;28;20044;-74
2020/12/28 03:44:37;;;;;;;9.18;6.15;;;2.50;77.70;;;;;;5052933;28;20031;-73
2020/12/28 03:47:02;;;;;;;8.55;6.10;;;2.60;77.90;;;;;;5052776;28;20099;-73
2020/12/28 03:49:28;;;;;;;12.38;6.65;;;2.50;78.00;;;;;;5053347;28;20025;-73
2020/12/28 03:51:54;;;;;;;13.70;7.20;;;2.50;78.10;;;;;;5052536;28;20075;-73
2020/12/28 03:54:19;;;;;;;8.85;6.03;;;2.50;78.50;;;;;;5052767;28;20025;-72
2020/12/28 03:56:45;;;;;;;10.65;6.07;;;2.50;78.00;;;;;;5052574;28;20021;-73
2020/12/28 03:59:10;;;;;;;9.48;6.05;;;2.50;78.20;;;;;;5052524;28;20029;-74
2020/12/28 04:01:36;;;;;;;11.57;6.88;;;2.50;78.10;;;;;;5034767;28;20103;-74
2020/12/28 04:04:02;;;;;;;10.70;6.72;;;2.40;78.10;;;;;;5052405;28;20492;-74
2020/12/28 04:06:27;;;;;;;10.68;5.55;;;2.40;78.20;;;;;;5052518;28;20029;-73
2020/12/28 04:08:53;;;;;;;8.43;6.57;;;2.40;78.10;;;;;;5034675;28;20100;-73
2020/12/28 04:11:19;;;;;;;10.75;6.95;;;2.40;78.10;;;;;;5050991;28;20037;-74
2020/12/28 04:13:44;;;;;;;12.02;6.00;;;2.40;78.00;;;;;;5034529;28;20021;-73
2020/12/28 04:16:14;;;;;;;9.20;6.03;;;2.50;78.10;;;;;;5051889;28;20025;-73
2020/12/28 04:18:40;;;;;;;10.82;6.50;;;2.50;77.90;;;;;;5052356;28;20017;-73
2020/12/28 04:21:05;;;;;;;12.40;7.22;;;2.50;77.70;;;;;;5052481;28;20139;-73
2020/12/28 04:23:31;;;;;;;10.88;6.88;;;2.50;77.70;;;;;;5034354;28;20021;-73
2020/12/28 04:25:56;;;;;;;11.48;7.07;;;2.50;77.20;;;;;;5052106;28;20446;-74
2020/12/28 04:28:22;;;;;;;11.30;6.25;;;2.60;77.50;;;;;;5052321;28;20355;-73
2020/12/28 04:30:48;;;;;;;12.48;7.35;;;2.60;76.80;;;;;;5052058;28;20427;-73
2020/12/28 04:33:13;;;;;;;11.48;6.68;;;2.60;77.00;;;;;;5052086;28;20031;-73
2020/12/28 04:35:39;;;;;;;10.43;5.80;;;2.60;76.70;;;;;;5034354;28;20036;-73
2020/12/28 04:38:04;;;;;;;9.73;5.95;;;2.60;76.80;;;;;;5052054;28;20028;-73
2020/12/28 04:40:30;;;;;;;9.05;5.88;;;2.60;76.60;;;;;;5051764;28;20060;-74
2020/12/28 04:42:56;;;;;;;11.93;6.88;;;2.50;76.70;;;;;;5034093;28;20025;-74
2020/12/28 04:45:22;;;;;;;11.00;7.03;;;2.60;76.80;;;;;;5052084;28;20017;-74
2020/12/28 04:47:48;;;;;;;8.90;5.40;;;2.70;76.50;;;;;;5051780;28;20387;-74
2020/12/28 04:50:14;;;;;;;9.93;6.03;;;2.70;76.60;;;;;;5052155;28;20021;-73
2020/12/28 04:52:40;;;;;;;11.23;7.05;;;2.70;76.30;;;;;;5052171;28;20044;-73
2020/12/28 04:55:06;;;;;;;11.80;6.95;;;2.70;76.40;;;;;;5051917;28;20024;-74
2020/12/28 04:57:32;;;;;;;9.70;6.25;;;2.70;76.60;;;;;;5050600;28;20057;-74
2020/12/28 04:59:57;;;;;;;11.48;6.95;;;2.70;76.80;;;;;;5051751;28;20104;-74
2020/12/28 05:02:26;;;;;;;12.80;6.75;;;2.70;76.70;;;;;;5051865;28;20087;-74
2020/12/28 05:04:51;;;;;;;12.07;7.22;;;2.70;77.20;;;;;;5051416;28;20095;-74
2020/12/28 05:07:17;;;;;;;12.05;8.07;;;2.70;76.80;;;;;;5034951;28;20125;-74
2020/12/28 05:09:43;;;;;;;10.82;7.13;;;2.70;77.00;;;;;;5055777;28;20025;-73
2020/12/28 05:12:09;;;;;;;12.52;8.30;;;2.70;77.30;;;;;;5055734;28;20033;-74
2020/12/28 05:14:35;;;;;;;10.50;7.70;;;2.60;77.30;;;;;;5055810;28;20100;-74
2020/12/28 05:17:03;;;;;;;9.57;7.38;;;2.60;77.60;;;;;;5055564;28;20025;-73
2020/12/28 05:19:29;;;;;;;12.65;8.00;;;2.60;77.60;;;;;;5055563;28;20029;-73
2020/12/28 05:21:56;;;;;;;12.50;7.47;;;2.60;77.80;;;;;;5051750;28;20021;-73
2020/12/28 05:24:23;;;;;;;9.30;7.00;;;2.70;77.30;;;;;;5035502;28;20026;-73
2020/12/28 05:26:49;;;;;;;9.18;7.30;;;2.70;77.20;;;;;;5035510;28;20033;-74
2020/12/28 05:29:16;;;;;;;9.88;7.20;;;2.70;77.30;;;;;;5044580;22;20108;-73
2020/12/28 05:31:44;;;;;;;12.13;7.82;;;2.70;77.30;;;;;;5055189;28;20056;-73
2020/12/28 05:34:17;;;;;;;11.00;7.07;;;2.70;77.40;;;;;;5055295;28;20032;-73
2020/12/28 05:36:46;;;;;;;9.52;6.60;;;2.70;77.60;;;;;;5055626;28;20082;-73
2020/12/28 05:39:15;;;;;;;10.52;6.22;;;2.70;77.60;;;;;;5055244;28;20166;-73
2020/12/28 05:42:06;;;;;;;12.40;6.50;;;2.80;77.70;;;;;;5054986;28;20095;-72
2020/12/28 05:44:32;;;;;;;11.25;6.80;;;2.70;77.70;;;;;;5035151;28;20361;-73
2020/12/28 05:47:09;;;;;;;9.63;6.65;;;2.70;77.60;;;;;;5034998;28;20124;-73
2020/12/28 05:49:43;;;;;;;10.88;7.07;;;2.70;77.60;;;;;;5034989;28;20522;-73
2020/12/28 05:52:10;;;;;;;10.35;7.07;;;2.70;77.70;;;;;;5034787;28;20432;-72
2020/12/28 05:54:37;;;;;;;9.25;6.35;;;2.70;77.70;;;;;;5034806;28;20707;-72
2020/12/28 05:57:04;;;;;;;11.25;6.65;;;2.60;77.60;;;;;;5034801;28;20025;-73
2020/12/28 05:59:31;;;;;;;8.77;5.75;;;2.70;77.60;;;;;;5034774;28;20026;-73
2020/12/28 06:01:58;;;;;;;9.90;6.43;;;2.70;77.70;;;;;;5034581;28;20028;-73
2020/12/28 06:04:24;;;;;;;9.45;6.28;;;2.70;77.70;;;;;;5034741;28;20025;-73
2020/12/28 06:07:00;;;;;;;11.15;7.07;;;2.60;77.90;;;;;;5033409;28;20387;-73
2020/12/28 06:09:26;;;;;;;9.02;6.40;;;2.60;77.90;;;;;;5042750;28;20025;-73
2020/12/28 06:12:06;;;;;;;9.98;6.25;;;2.60;78.00;;;;;;5034384;28;20038;-73
2020/12/28 06:14:36;;;;;;;9.75;6.63;;;2.50;78.10;;;;;;5033338;28;20026;-73
2020/12/28 06:17:08;;;;;;;10.00;6.90;;;2.50;78.20;;;;;;5043561;28;20040;-73
2020/12/28 06:19:34;;;;;;;9.65;6.45;;;2.50;78.20;;;;;;5054297;28;20024;-73
2020/12/28 06:21:59;;;;;;;8.93;6.63;;;2.60;78.10;;;;;;5054381;28;20043;-73
2020/12/28 06:24:26;;;;;;;9.35;6.90;;;2.50;78.30;;;;;;5054223;28;20108;-73
2020/12/28 06:27:06;;;;;;;10.77;6.68;;;2.50;78.50;;;;;;5054087;28;20359;-73
2020/12/28 06:29:32;;;;;;;9.45;6.43;;;2.40;78.60;;;;;;5054024;28;20111;-73
2020/12/28 06:32:09;;;;;;;10.32;6.35;;;2.40;78.70;;;;;;5054113;28;20608;-73
2020/12/28 06:34:34;;;;;;;9.40;5.90;;;2.40;78.80;;;;;;5054209;28;20060;-72
2020/12/28 06:37:01;;;;;;;9.38;5.88;;;2.30;78.80;;;;;;5053959;28;20056;-72
2020/12/28 06:39:28;;;;;;;9.63;5.70;;;2.30;79.00;;;;;;5053823;28;20025;-73
2020/12/28 06:41:53;;;;;;;9.38;6.03;;;2.30;78.80;;;;;;5053603;28;20024;-73
2020/12/28 06:44:26;;;;;;;10.43;6.32;;;2.30;78.90;;;;;;5053698;28;20059;-73
2020/12/28 06:46:53;;;;;;;9.73;5.97;;;2.30;79.00;;;;;;5036116;28;20161;-73
2020/12/28 06:49:19;;;;;;;7.70;5.30;;;2.30;79.10;;;;;;5053808;28;20087;-73
2020/12/28 06:51:44;;;;;;;9.63;5.97;;;2.30;79.10;;;;;;5053621;28;20044;-72
2020/12/28 06:54:10;;;;;;;10.30;5.95;;;2.30;79.20;;;;;;5035858;28;20056;-72
2020/12/28 06:56:36;;;;;;;9.32;6.30;;;2.30;79.20;;;;;;5053765;28;20399;-72
2020/12/28 06:59:02;;;;;;;9.45;6.60;;;2.20;79.40;;;;;;5053399;28;20025;-74
2020/12/28 07:01:28;;;;;;;9.68;6.22;;;2.20;79.40;;;;;;5053544;28;20529;-73
2020/12/28 07:03:55;;;;;;;10.02;6.45;;;2.30;79.10;;;;;;5053347;28;20025;-72
2020/12/28 07:06:21;;;;;;;7.57;5.45;;;2.30;79.20;;;;;;5053583;28;20028;-73
2020/12/28 07:08:47;;;;;;;8.75;5.53;;;2.30;79.10;;;;;;5053468;28;20029;-73
2020/12/28 07:11:20;;;;;;;8.93;5.38;;;2.30;79.10;;;;;;5053095;28;20063;-73
2020/12/28 07:13:46;;;;;;;9.02;5.82;;;2.20;79.10;;;;;;5053256;28;20107;-73
2020/12/28 07:16:12;;;;;;;8.10;6.05;;;2.30;79.30;;;;;;5053231;28;20036;-73
2020/12/28 07:18:38;;;;;;;9.13;5.50;;;2.30;79.10;;;;;;5019003;28;20021;-73
2020/12/28 07:21:05;;;;;;;9.73;5.93;;;2.30;79.10;;;;;;5053202;28;20530;-73
2020/12/28 07:23:32;;;;;;;9.52;5.78;;;2.30;78.90;;;;;;5053448;28;20013;-73
2020/12/28 07:26:06;;;;;;;8.73;5.50;;;2.30;78.80;;;;;;5035325;28;20020;-72
2020/12/28 07:28:34;;;;;;;8.20;5.30;;;2.30;78.80;;;;;;5034903;28;20025;-73
2020/12/28 07:31:01;;;;;;;10.73;5.50;;;2.30;78.70;;;;;;5052379;28;20041;-74
2020/12/28 07:33:27;;;;;;;8.25;5.45;;;2.40;78.70;;;;;;5053079;28;20020;-74
2020/12/28 07:36:14;;;;;;;7.65;5.15;;;2.30;78.60;;;;;;5052830;28;20558;-74
2020/12/28 07:38:43;;;;;;;8.45;5.70;;;2.30;78.70;;;;;;5052833;28;20494;-74
2020/12/28 07:41:15;;;;;;;9.88;5.00;;;2.30;78.70;;;;;;5052690;28;20032;-74
2020/12/28 07:43:51;;;;;;;7.10;5.60;;;2.30;78.70;;;;;;5038382;28;20056;-74
2020/12/28 07:46:23;;;;;;;9.05;5.93;;;2.30;78.80;;;;;;5053004;28;20028;-74
2020/12/28 07:48:52;;;;;;;8.70;5.60;;;2.30;78.70;;;;;;5053097;28;20094;-73
2020/12/28 07:51:21;;;;;;;8.23;5.35;;;2.30;78.70;;;;;;5052736;28;20493;-74
2020/12/28 07:53:50;;;;;;;6.22;4.65;;;2.40;78.50;;;;;;5052568;28;20079;-76
2020/12/28 07:56:58;;;;;;;8.13;5.40;;;2.40;78.60;;;;;;5052547;28;20024;-74
2020/12/28 07:59:46;;;;;;;9.70;5.85;;;2.40;78.60;;;;;;5052603;28;20021;-74
2020/12/28 08:02:25;;;;;;;8.25;5.45;;;2.30;78.70;;;;;;5034491;28;20056;-74
2020/12/28 08:04:51;;;;;;;9.68;6.38;;;2.30;78.80;;;;;;5052473;28;20096;-75
2020/12/28 08:07:21;;;;;;;7.45;5.95;;;2.30;78.90;;;;;;5034339;28;20112;-74
2020/12/28 08:09:54;;;;;;;15.63;6.55;;;2.30;78.80;;;;;;5052157;28;20498;-73
2020/12/28 08:12:21;;;;;;;11.18;6.07;;;2.40;78.50;;;;;;5034481;28;20040;-73
2020/12/28 08:14:54;;;;;;;9.45;5.88;;;2.40;78.70;;;;;;5034397;28;20471;-73
2020/12/28 08:17:24;;;;;;;9.45;6.22;;;2.40;78.40;;;;;;5034291;28;20125;-73
2020/12/28 08:19:50;;;;;;;7.28;5.80;;;2.40;78.40;;;;;;5051981;28;20025;-74
2020/12/28 08:22:24;;;;;;;10.50;6.18;;;2.50;78.20;;;;;;5053042;28;20025;-74
2020/12/28 08:25:10;;;;;;;11.25;6.45;;;2.50;78.10;;;;;;5034261;28;20032;-74
2020/12/28 08:27:36;;;;;;;9.15;6.25;;;2.60;77.70;;;;;;5051899;28;20017;-75
2020/12/28 08:30:06;;;;;;;11.65;6.25;;;2.50;77.80;;;;;;5051709;28;20049;-75
2020/12/28 08:32:33;;;;;;;8.57;5.97;;;2.60;77.80;;;;;;5051823;28;20029;-74
2020/12/28 08:35:00;;;;;;;9.57;5.85;;;2.60;77.60;;;;;;5052200;28;20112;-74
2020/12/28 08:37:27;;;;;;;8.65;5.68;;;2.60;77.70;;;;;;5050806;28;20388;-78
2020/12/28 08:39:53;;;;;;;10.68;6.68;;;2.70;78.10;;;;;;5051880;28;20094;-76
2020/12/28 08:42:33;;;;;;;7.22;5.70;;;2.70;78.00;;;;;;5053000;28;20460;-70
2020/12/28 08:45:01;;;;;;;10.85;5.97;;;2.80;77.30;;;;;;5037548;28;20039;-74
2020/12/28 08:47:28;;;;;;;10.13;6.18;;;2.80;77.50;;;;;;5056095;28;20067;-76
2020/12/28 08:49:55;;;;;;;9.55;6.07;;;2.90;77.50;;;;;;5055326;28;20052;-74
2020/12/28 08:52:23;;;;;;;9.65;6.80;;;2.90;77.40;;;;;;5055853;28;20032;-75
2020/12/28 08:54:59;;;;;;;12.35;6.40;;;2.90;77.20;;;;;;5055794;28;20025;-75
2020/12/28 08:57:30;;;;;;;8.65;6.28;;;2.90;77.50;;;;;;5022232;28;20082;-77
2020/12/28 08:59:57;;;;;;;7.88;5.55;;;2.90;77.30;;;;;;5055945;28;20036;-77
2020/12/28 09:02:27;;;;;;;10.25;5.88;;;2.90;76.60;;;;;;5038233;28;20476;-77
2020/12/28 09:04:54;;;;;;;10.07;5.93;;;2.90;77.10;;;;;;5054432;28;20063;-73
2020/12/28 09:07:20;;;;;;;7.68;5.60;;;2.90;76.80;;;;;;5054576;28;20087;-71
2020/12/28 09:09:48;;;;;;;9.45;5.57;;;3.00;76.40;;;;;;5055604;28;20033;-72
2020/12/28 09:12:14;;;;;;;9.55;6.28;;;3.00;76.40;;;;;;5055761;28;20033;-71
2020/12/28 09:14:40;;;;;;;8.20;5.70;;;3.00;76.10;;;;;;5054807;28;20025;-73
2020/12/28 09:17:06;;;;;;;10.00;6.47;;;3.00;76.30;;;;;;5054532;28;20112;-70
2020/12/28 09:19:33;;;;;;;9.15;6.35;;;3.00;76.10;;;;;;5055506;28;20163;-72
2020/12/28 09:21:59;;;;;;;8.38;6.07;;;3.00;76.30;;;;;;5054363;28;20021;-72
2020/12/28 09:24:26;;;;;;;8.88;6.00;;;3.10;76.90;;;;;;5055234;28;20029;-71
2020/12/28 09:26:54;;;;;;;9.60;6.53;;;3.20;76.10;;;;;;5055387;28;20031;-70
2020/12/28 09:29:21;;;;;;;9.73;5.65;;;3.20;76.00;;;;;;5037784;28;20033;-71
2020/12/28 09:31:46;;;;;;;9.80;6.28;;;3.20;75.90;;;;;;5055129;28;20060;-71
2020/12/28 09:34:15;;;;;;;9.05;5.95;;;3.20;75.30;;;;;;5055359;28;20102;-71
2020/12/28 09:36:41;;;;;;;9.70;6.40;;;3.30;75.90;;;;;;5055227;28;20051;-71
2020/12/28 09:39:07;;;;;;;9.05;6.40;;;3.30;75.40;;;;;;5055104;28;20455;-70
2020/12/28 09:41:32;;;;;;;8.93;6.13;;;3.30;75.60;;;;;;5054906;28;20079;-71
2020/12/28 09:43:58;;;;;;;9.85;6.65;;;3.40;75.30;;;;;;5054916;28;20448;-71
2020/12/28 09:46:24;;;;;;;10.13;6.38;;;3.40;76.10;;;;;;5055084;28;20029;-71
2020/12/28 09:48:50;;;;;;;7.82;5.22;;;3.50;76.10;;;;;;5037291;28;20033;-71
2020/12/28 09:51:16;;;;;;;10.00;6.25;;;3.70;74.20;;;;;;5054751;28;20029;-70
2020/12/28 09:53:43;;;;;;;7.32;5.43;;;3.60;74.70;;;;;;5054262;28;20116;-72
2020/12/28 09:56:09;;;;;;;31.50;18.20;;;3.60;73.30;;;;;;5054543;28;20021;-72
2020/12/28 09:58:36;;;;;;;22.73;14.45;;;3.60;74.60;;;;;;5036716;28;20036;-71
2020/12/28 10:01:03;;;;;;;8.98;6.03;;;3.60;74.00;;;;;;5051469;28;20051;-71
2020/12/28 10:03:29;;;;;;;12.02;6.80;;;3.70;72.90;;;;;;5054592;28;20039;-71
2020/12/28 10:05:54;;;;;;;11.57;7.95;;;3.60;73.20;;;;;;5036464;28;20119;-71
2020/12/28 10:08:23;;;;;;;12.23;6.78;;;3.60;73.40;;;;;;5054671;28;20102;-71
2020/12/28 10:10:49;;;;;;;9.80;5.93;;;3.70;73.20;;;;;;5036528;28;20476;-71
2020/12/28 10:13:15;;;;;;;17.17;10.50;;;3.70;72.80;;;;;;5054352;28;20092;-72
2020/12/28 10:15:41;;;;;;;9.82;6.97;;;3.70;73.90;;;;;;5054344;28;20021;-70
2020/12/28 10:18:22;;;;;;;9.80;6.72;;;3.70;72.40;;;;;;5054504;28;20475;-70
2020/12/28 10:20:48;;;;;;;14.15;8.15;;;3.60;72.80;;;;;;5054700;28;20047;-71
2020/12/28 10:23:14;;;;;;;12.90;8.25;;;3.60;73.10;;;;;;5054383;28;20048;-75
2020/12/28 10:25:40;;;;;;;9.32;6.35;;;3.60;73.40;;;;;;5054085;28;20032;-72
2020/12/28 10:28:05;;;;;;;10.13;6.97;;;3.70;72.70;;;;;;5036748;28;20052;-73
2020/12/28 10:30:31;;;;;;;9.77;6.40;;;3.60;72.80;;;;;;5053997;28;20559;-71
2020/12/28 10:32:57;;;;;;;13.40;8.55;;;3.50;73.20;;;;;;5052762;28;20036;-72
2020/12/28 10:35:23;;;;;;;17.05;10.50;;;3.40;73.70;;;;;;5036297;28;20033;-71
2020/12/28 10:37:49;;;;;;;14.80;9.55;;;3.40;73.90;;;;;;5053973;28;20388;-73
2020/12/28 10:40:15;;;;;;;9.80;6.65;;;3.50;74.40;;;;;;5053795;28;20017;-72
2020/12/28 10:42:41;;;;;;;10.82;7.00;;;3.30;73.90;;;;;;5053777;28;20021;-73
2020/12/28 10:45:06;;;;;;;11.75;7.22;;;3.30;74.00;;;;;;5035959;28;20032;-73
2020/12/28 10:47:32;;;;;;;11.95;7.13;;;3.30;74.00;;;;;;5053724;28;20058;-73
2020/12/28 10:49:58;;;;;;;11.90;7.40;;;3.30;73.90;;;;;;5053774;28;20025;-72
2020/12/28 10:52:23;;;;;;;12.35;7.18;;;3.40;73.80;;;;;;5053824;28;20063;-71
2020/12/28 10:54:49;;;;;;;12.63;7.95;;;3.40;73.40;;;;;;5019283;28;20059;-72
2020/12/28 10:57:15;;;;;;;13.07;7.47;;;3.40;73.70;;;;;;5053630;28;20021;-71
2020/12/28 10:59:40;;;;;;;16.67;10.32;;;3.50;73.60;;;;;;5053708;28;20075;-71
2020/12/28 11:02:06;;;;;;;19.90;11.93;;;3.50;73.90;;;;;;5053793;28;20043;-71
2020/12/28 11:04:32;;;;;;;9.43;6.57;;;3.40;74.10;;;;;;5052762;28;20498;-72
2020/12/28 11:06:58;;;;;;;13.73;8.27;;;3.40;73.80;;;;;;5053285;28;20036;-71
2020/12/28 11:09:23;;;;;;;11.57;6.68;;;3.40;73.70;;;;;;5053499;28;20032;-71
2020/12/28 11:11:50;;;;;;;10.50;7.32;;;3.50;73.40;;;;;;5053227;28;20051;-73
2020/12/28 11:14:16;;;;;;;12.13;7.60;;;3.50;73.80;;;;;;5053356;28;20021;-76
2020/12/28 11:16:42;;;;;;;14.15;9.40;;;3.60;73.50;;;;;;5035459;28;20021;-76
2020/12/28 11:19:08;;;;;;;12.63;7.95;;;3.50;73.90;;;;;;5053147;28;20051;-74
2020/12/28 11:21:33;;;;;;;11.50;7.55;;;3.40;73.60;;;;;;5053442;28;20031;-71
2020/12/28 11:24:01;;;;;;;11.63;7.38;;;3.60;73.90;;;;;;5053036;28;20021;-75
2020/12/28 11:26:31;;;;;;;10.95;7.68;;;3.60;73.10;;;;;;5053176;28;20029;-77
2020/12/28 11:28:58;;;;;;;19.58;10.32;;;3.70;73.20;;;;;;5053057;28;20028;-72
2020/12/28 11:31:24;;;;;;;12.70;8.52;;;3.60;73.60;;;;;;5052794;28;20158;-74
2020/12/28 11:33:50;;;;;;;18.10;10.50;;;3.60;73.40;;;;;;5052850;28;20029;-79
2020/12/28 11:36:17;;;;;;;15.95;9.35;;;3.60;73.50;;;;;;5052863;28;20112;-72
2020/12/28 11:38:43;;;;;;;13.48;8.80;;;3.70;73.50;;;;;;5049791;28;20056;-73
2020/12/28 11:41:09;;;;;;;11.48;7.43;;;3.70;73.60;;;;;;5031416;28;20026;-73
2020/12/28 11:43:35;;;;;;;58.00;31.17;;;3.80;72.70;;;;;;5048031;28;20379;-72
2020/12/28 11:46:01;;;;;;;54.25;28.63;;;3.80;72.70;;;;;;5052273;28;20036;-73
2020/12/28 11:48:27;;;;;;;12.50;7.72;;;3.70;73.20;;;;;;5052415;28;20143;-73
2020/12/28 11:50:53;;;;;;;16.88;9.60;;;3.50;73.00;;;;;;5052477;28;20025;-73
2020/12/28 11:53:18;;;;;;;15.15;9.57;;;3.50;73.10;;;;;;5034560;28;20033;-74
2020/12/28 11:56:03;;;;;;;12.60;7.85;;;3.40;73.80;;;;;;5034991;28;20052;-73
2020/12/28 11:58:39;;;;;;;16.35;8.20;;;3.40;73.70;;;;;;5052533;28;20495;-74
2020/12/28 12:01:11;;;;;;;13.68;8.27;;;3.50;73.70;;;;;;5034452;28;20028;-73
2020/12/28 12:03:37;;;;;;;11.95;8.15;;;3.40;74.10;;;;;;5034328;28;20163;-75
2020/12/28 12:06:03;;;;;;;13.85;7.85;;;3.50;74.00;;;;;;5034374;28;20112;-74
2020/12/28 12:08:28;;;;;;;13.75;7.32;;;3.50;73.90;;;;;;5052431;28;20028;-72
2020/12/28 12:10:54;;;;;;;12.70;8.43;;;3.40;74.10;;;;;;5052685;28;20028;-75
2020/12/28 12:13:21;;;;;;;15.52;9.02;;;3.30;74.30;;;;;;5052296;28;20077;-78
2020/12/28 12:15:48;;;;;;;16.20;10.27;;;3.40;74.10;;;;;;5052293;28;20025;-80
2020/12/28 12:18:14;;;;;;;15.85;8.45;;;3.30;74.20;;;;;;5052060;28;20021;-80
2020/12/28 12:20:40;;;;;;;16.92;8.98;;;3.40;73.90;;;;;;5052119;28;20041;-78
2020/12/28 12:23:06;;;;;;;19.13;9.00;;;3.30;74.00;;;;;;5034203;28;20025;-75
2020/12/28 12:25:33;;;;;;;15.20;8.90;;;3.30;74.50;;;;;;5034011;28;20028;-74
2020/12/28 12:27:59;;;;;;;14.75;9.00;;;3.30;74.60;;;;;;5034232;28;20117;-79
2020/12/28 12:30:24;;;;;;;15.43;9.40;;;3.30;74.40;;;;;;5051888;28;20531;-79
2020/12/28 12:32:51;;;;;;;17.85;10.30;;;3.30;74.60;;;;;;5034342;28;20067;-79
2020/12/28 12:35:17;;;;;;;13.82;8.88;;;3.40;75.00;;;;;;5052018;28;20032;-79
2020/12/28 12:37:42;;;;;;;13.60;8.98;;;3.40;73.90;;;;;;5051984;28;20392;-79
2020/12/28 12:40:08;;;;;;;13.48;8.65;;;3.30;74.10;;;;;;5051717;28;20427;-79
2020/12/28 12:42:33;;;;;;;12.55;9.02;;;3.30;74.00;;;;;;5026946;28;20061;-78
2020/12/28 12:44:59;;;;;;;15.48;9.32;;;3.20;74.20;;;;;;5032138;28;20025;-77
2020/12/28 12:47:25;;;;;;;13.43;8.88;;;3.30;74.30;;;;;;5050903;28;20491;-78
2020/12/28 12:49:50;;;;;;;13.85;8.90;;;3.20;74.50;;;;;;5050485;28;20178;-77